Time;durP1;ratioP1;P1;durP2;ratioP2;P2;SDS_P1;SDS_P2;PMS_P1;PMS_P2;Temp;Humidity;BMP_temperature;BMP_pressure;BME280_temperature;BME280_humidity;BME280_pressure;Samples;Min_cycle;Max_cycle;Signal;HPM_P1;HPM_P2
2021/08/26 00:06:18;;;;;;;7.63;3.60;;;;;;;15.55;100.00;101086.28;4984213;28;20049;-84
2021/08/26 00:08:47;;;;;;;7.75;3.63;;;;;;;15.54;100.00;101085.44;4985936;28;20399;-84
2021/08/26 00:11:19;;;;;;;9.70;3.45;;;;;;;15.54;100.00;101071.94;4971476;28;20085;-84
2021/08/26 00:13:56;;;;;;;7.35;3.55;;;;;;;15.54;100.00;101069.22;4984360;28;20058;-84
2021/08/26 00:16:25;;;;;;;7.50;3.50;;;;;;;15.48;100.00;101079.97;4983780;28;20054;-84
2021/08/26 00:18:58;;;;;;;9.82;3.60;;;;;;;15.47;100.00;101084.53;4984819;28;20921;-84
2021/08/26 00:21:24;;;;;;;8.52;3.25;;;;;;;15.42;100.00;101070.75;4982886;28;20050;-84
2021/08/26 00:23:50;;;;;;;7.43;3.47;;;;;;;15.41;100.00;101069.06;4969022;28;20129;-84
2021/08/26 00:26:17;;;;;;;8.52;3.33;;;;;;;15.39;99.23;101072.97;4969780;28;20168;-84
2021/08/26 00:28:43;;;;;;;9.88;3.22;;;;;;;15.37;99.56;101073.19;4963022;28;20038;-84
2021/08/26 00:31:13;;;;;;;6.80;3.05;;;;;;;15.37;99.77;101070.47;4984505;28;20048;-84
2021/08/26 00:33:40;;;;;;;11.05;3.20;;;;;;;15.36;98.99;101071.47;4979554;28;20046;-84
2021/08/26 00:36:07;;;;;;;9.32;4.03;;;;;;;15.33;98.33;101064.63;4985576;28;20598;-84
2021/08/26 00:38:34;;;;;;;7.40;2.83;;;;;;;15.28;98.01;101060.78;4968198;28;20117;-84
2021/08/26 00:41:01;;;;;;;10.32;3.13;;;;;;;15.25;98.33;101053.91;5000201;28;20537;-84
2021/08/26 00:43:28;;;;;;;8.52;3.35;;;;;;;15.27;98.29;101056.41;5016594;28;20046;-83
2021/08/26 00:45:56;;;;;;;7.03;3.63;;;;;;;15.23;98.67;101057.81;4984804;28;20051;-84
2021/08/26 00:48:28;;;;;;;9.13;3.60;;;;;;;15.19;98.66;101053.78;4999571;28;20049;-84
2021/08/26 00:50:57;;;;;;;10.43;3.60;;;;;;;15.21;98.94;101044.47;4992960;28;20046;-84
2021/08/26 00:53:23;;;;;;;;;;;;;;;15.22;98.93;101040.75;4999896;28;20476;-84
2021/08/26 00:55:55;;;;;;;10.95;3.55;;;;;;;15.14;99.31;101037.31;4993020;28;19956;-84
2021/08/26 00:58:23;;;;;;;8.02;3.15;;;;;;;15.17;99.12;101037.78;4965699;28;20051;-83
2021/08/26 01:00:51;;;;;;;8.63;3.80;;;;;;;15.16;98.40;101036.09;4964676;28;20054;-83
2021/08/26 01:03:28;;;;;;;11.20;3.38;;;;;;;15.15;96.94;101025.47;4958405;28;20034;-85
2021/08/26 01:05:55;;;;;;;10.05;3.53;;;;;;;15.14;96.32;101029.22;4977328;28;20035;-84
2021/08/26 01:08:35;;;;;;;10.35;3.83;;;;;;;15.14;96.56;101032.75;4964481;28;20046;-84
2021/08/26 01:11:04;;;;;;;12.82;3.90;;;;;;;15.17;96.54;101032.38;4971681;28;20106;-83
2021/08/26 01:13:41;;;;;;;12.68;3.97;;;;;;;15.16;96.16;101032.53;4965042;28;20722;-83
2021/08/26 01:16:15;;;;;;;8.07;3.35;;;;;;;15.14;96.15;101030.06;4966932;28;20038;-84
2021/08/26 01:18:43;;;;;;;10.32;3.63;;;;;;;15.16;96.22;101024.44;4979790;28;20035;-84
2021/08/26 01:21:19;;;;;;;11.75;4.18;;;;;;;15.13;95.25;101020.25;4976507;28;20132;-85
2021/08/26 01:23:54;;;;;;;12.82;4.55;;;;;;;15.10;95.16;101024.19;4962001;28;20054;-84
2021/08/26 01:26:35;;;;;;;10.15;3.78;;;;;;;15.08;95.22;101023.53;4975086;28;20039;-84
2021/08/26 01:29:07;;;;;;;9.70;4.00;;;;;;;15.09;94.95;101029.75;4980573;28;20030;-84
2021/08/26 01:31:33;;;;;;;12.27;3.63;;;;;;;15.09;94.59;101027.06;4961070;28;20107;-84
2021/08/26 01:34:01;;;;;;;13.85;3.83;;;;;;;15.09;94.81;101024.34;4963074;28;20050;-85
2021/08/26 01:36:30;;;;;;;11.95;3.70;;;;;;;15.09;94.78;101027.91;4960801;28;20372;-84
2021/08/26 01:39:02;;;;;;;13.82;4.20;;;;;;;15.07;95.21;101018.28;4996510;28;20050;-84
2021/08/26 01:41:57;;;;;;;10.95;3.67;;;;;;;15.09;95.25;101022.50;4983982;28;20035;-84
2021/08/26 01:44:27;;;;;;;12.65;4.20;;;;;;;15.01;95.38;101019.88;4977470;28;20085;-84
2021/08/26 01:47:03;;;;;;;14.38;4.55;;;;;;;15.00;94.65;101025.50;4999643;28;20042;-83
2021/08/26 01:49:28;;;;;;;9.63;4.45;;;;;;;14.98;94.70;101022.97;4984703;28;20101;-84
2021/08/26 01:51:56;;;;;;;10.50;3.55;;;;;;;14.94;93.84;101018.97;4985404;28;20639;-84
2021/08/26 01:54:21;;;;;;;13.50;4.32;;;;;;;14.98;93.89;101019.44;4981453;28;20046;-84
2021/08/26 01:56:47;;;;;;;11.50;3.80;;;;;;;15.00;92.91;101018.22;4984576;28;20035;-84
2021/08/26 01:59:13;;;;;;;11.68;3.65;;;;;;;14.97;93.16;101015.06;5000295;28;20042;-84
2021/08/26 02:01:38;;;;;;;11.20;3.70;;;;;;;14.97;92.51;101012.34;4980721;28;20041;-84
2021/08/26 02:04:04;;;;;;;10.43;3.65;;;;;;;14.94;92.37;101013.56;4983507;28;20042;-84
2021/08/26 02:06:30;;;;;;;12.13;4.03;;;;;;;14.95;92.72;101014.41;4995013;28;20154;-84
2021/08/26 02:08:55;;;;;;;10.40;3.95;;;;;;;14.93;92.43;101017.28;4984467;28;20054;-84
2021/08/26 02:11:20;;;;;;;9.60;3.50;;;;;;;14.93;92.16;101017.28;5001894;28;20050;-84
2021/08/26 02:13:46;;;;;;;16.48;4.57;;;;;;;14.92;92.70;101012.91;4981999;28;20049;-84
2021/08/26 02:16:14;;;;;;;14.20;5.05;;;;;;;14.93;92.50;101011.03;4987975;28;20104;-84
2021/08/26 02:18:42;;;;;;;9.60;3.40;;;;;;;14.91;92.90;101003.13;4982962;28;20041;-84
2021/08/26 02:21:08;;;;;;;11.38;4.32;;;;;;;14.88;92.81;101003.50;4989065;28;20077;-83
2021/08/26 02:23:34;;;;;;;13.23;3.60;;;;;;;14.88;92.82;101007.06;4987593;28;20571;-84
2021/08/26 02:25:59;;;;;;;12.27;4.32;;;;;;;14.89;92.74;101005.19;5002852;28;20046;-84
2021/08/26 02:28:24;;;;;;;15.52;4.05;;;;;;;14.90;92.88;101001.44;5018631;28;20074;-83
2021/08/26 02:30:53;;;;;;;14.15;4.20;;;;;;;14.89;92.86;101000.59;4986514;28;20053;-84
2021/08/26 02:33:21;;;;;;;17.63;4.32;;;;;;;14.83;92.65;100995.97;4986153;28;20038;-85
2021/08/26 02:35:48;;;;;;;15.18;4.50;;;;;;;14.83;92.90;100997.81;4984069;28;20561;-84
2021/08/26 02:38:15;;;;;;;11.73;3.83;;;;;;;14.83;92.72;100990.56;4988365;28;20042;-84
2021/08/26 02:40:41;;;;;;;14.10;4.40;;;;;;;14.85;93.05;100987.69;4987769;28;20039;-84
2021/08/26 02:43:09;;;;;;;13.90;3.88;;;;;;;14.83;92.69;100989.72;4985901;28;20603;-84
2021/08/26 02:45:34;;;;;;;10.93;3.70;;;;;;;14.87;92.69;100999.13;5000468;28;20069;-84
2021/08/26 02:48:01;;;;;;;11.40;3.70;;;;;;;14.85;92.93;100999.31;5001699;28;20125;-83
2021/08/26 02:50:27;;;;;;;10.88;3.53;;;;;;;14.80;93.26;100995.50;4987139;28;20038;-84
2021/08/26 02:52:53;;;;;;;12.55;4.00;;;;;;;14.79;93.50;100991.97;4987478;28;20073;-83
2021/08/26 02:55:18;;;;;;;14.15;4.00;;;;;;;14.83;93.24;101000.53;4982271;28;20062;-84
2021/08/26 02:57:45;;;;;;;15.10;4.22;;;;;;;14.82;93.30;100996.16;4986317;28;20061;-84
2021/08/26 03:00:11;;;;;;;11.90;3.70;;;;;;;14.82;93.32;100998.88;4984443;28;20042;-84
2021/08/26 03:02:36;;;;;;;11.27;3.88;;;;;;;14.81;93.66;100992.59;5019486;28;20057;-84
2021/08/26 03:05:02;;;;;;;11.52;4.18;;;;;;;14.80;93.37;100993.63;5017522;28;20046;-84
2021/08/26 03:07:27;;;;;;;16.38;4.57;;;;;;;14.78;93.25;100994.84;4968962;28;20105;-84
2021/08/26 03:09:55;;;;;;;13.38;4.28;;;;;;;14.80;93.59;100998.19;4969206;28;20407;-84
2021/08/26 03:12:20;;;;;;;16.10;4.35;;;;;;;14.79;93.38;101001.94;5002471;28;20065;-84
2021/08/26 03:14:48;;;;;;;10.52;3.80;;;;;;;14.79;93.46;100994.66;4987043;28;20137;-84
2021/08/26 03:17:14;;;;;;;9.48;4.32;;;;;;;14.77;93.07;100995.88;4983407;28;20038;-84
2021/08/26 03:19:40;;;;;;;15.38;4.68;;;;;;;14.73;93.21;100984.63;4985839;28;20088;-84
2021/08/26 03:22:07;;;;;;;11.43;3.90;;;;;;;14.76;93.44;100986.06;4969758;28;20034;-84
2021/08/26 03:24:32;;;;;;;12.40;4.13;;;;;;;14.74;93.50;100986.28;5002351;28;20048;-84
2021/08/26 03:26:58;;;;;;;15.73;4.13;;;;;;;14.73;93.22;100967.53;5002478;28;20042;-84
2021/08/26 03:29:24;;;;;;;13.60;4.78;;;;;;;14.70;93.56;100965.22;4969669;28;20051;-84
2021/08/26 03:31:50;;;;;;;15.85;4.55;;;;;;;14.73;93.25;100971.13;4984964;28;20046;-84
2021/08/26 03:34:16;;;;;;;14.18;4.05;;;;;;;14.76;92.79;100967.16;4969026;28;20053;-85
2021/08/26 03:36:42;;;;;;;17.08;4.78;;;;;;;14.73;92.88;100960.31;4965906;28;20038;-84
2021/08/26 03:39:08;;;;;;;14.93;4.00;;;;;;;14.75;92.52;100962.81;5000953;28;20407;-85
2021/08/26 03:41:33;;;;;;;11.43;4.00;;;;;;;14.71;92.71;100961.50;4999204;28;20038;-85
2021/08/26 03:43:59;;;;;;;15.57;4.50;;;;;;;14.72;92.89;100955.06;4970574;28;20046;-85
2021/08/26 03:46:24;;;;;;;14.52;4.70;;;;;;;14.72;92.59;100955.06;4988703;28;20129;-85
2021/08/26 03:48:50;;;;;;;15.43;4.30;;;;;;;14.68;92.83;100956.50;5004853;28;20113;-85
2021/08/26 03:51:15;;;;;;;15.05;4.60;;;;;;;14.70;92.84;100963.34;4989274;28;20041;-85
2021/08/26 03:53:41;;;;;;;12.75;4.45;;;;;;;14.68;92.90;100954.63;4987067;28;20042;-85
2021/08/26 03:56:06;;;;;;;21.02;4.75;;;;;;;14.71;92.58;100961.50;4987334;28;20660;-86
2021/08/26 03:58:33;;;;;;;19.15;4.40;;;;;;;14.69;92.78;100958.97;4985778;28;20793;-85
2021/08/26 04:01:03;;;;;;;17.38;4.60;;;;;;;14.67;92.72;100955.63;4985608;28;20125;-84
2021/08/26 04:03:31;;;;;;;16.45;4.10;;;;;;;14.69;92.64;100947.34;4976748;28;20042;-84
2021/08/26 04:05:56;;;;;;;17.75;4.72;;;;;;;14.70;92.49;100947.16;4959279;28;20522;-83
2021/08/26 04:08:22;;;;;;;12.27;3.75;;;;;;;14.68;92.23;100954.63;4967231;28;20129;-84
2021/08/26 04:10:47;;;;;;;13.95;4.50;;;;;;;14.63;92.34;100955.16;4964775;28;20050;-84
2021/08/26 04:13:13;;;;;;;12.93;4.18;;;;;;;14.68;91.90;100948.38;4980641;28;20110;-83
2021/08/26 04:15:38;;;;;;;16.33;5.10;;;;;;;14.68;92.21;100953.78;4951993;28;20051;-88
2021/08/26 04:18:05;;;;;;;15.43;4.40;;;;;;;14.68;92.26;100957.31;4980306;28;20077;-85
2021/08/26 04:20:32;;;;;;;18.10;4.28;;;;;;;14.64;92.34;100954.16;4969214;28;20090;-85
2021/08/26 04:22:57;;;;;;;17.27;3.95;;;;;;;14.63;91.82;100954.34;4966429;28;20530;-84
2021/08/26 04:25:24;;;;;;;12.60;4.03;;;;;;;14.64;92.26;100959.56;4968509;28;20050;-84
2021/08/26 04:27:50;;;;;;;13.57;4.50;;;;;;;14.62;92.35;100958.91;4956626;28;20390;-85
2021/08/26 04:30:16;;;;;;;13.10;3.78;;;;;;;14.60;91.51;100960.94;4973486;28;20098;-84
2021/08/26 04:32:41;;;;;;;17.05;4.03;;;;;;;14.60;91.55;100963.66;4993618;28;20243;-84
2021/08/26 04:35:07;;;;;;;13.20;3.50;;;;;;;14.56;91.40;100953.41;4982294;28;20050;-84
2021/08/26 04:37:32;;;;;;;16.23;3.45;;;;;;;14.61;91.09;100957.22;4983275;28;20046;-84
2021/08/26 04:39:57;;;;;;;16.48;4.80;;;;;;;14.61;91.66;100954.50;4964072;28;20529;-84
2021/08/26 04:42:24;;;;;;;12.93;3.88;;;;;;;14.62;91.38;100958.06;4990921;28;20473;-84
2021/08/26 04:44:49;;;;;;;15.73;3.45;;;;;;;14.63;91.03;100952.47;4983145;28;20212;-84
2021/08/26 04:47:15;;;;;;;11.65;3.53;;;;;;;14.60;91.36;100952.84;4982523;28;20483;-84
2021/08/26 04:49:40;;;;;;;14.13;3.95;;;;;;;14.60;91.43;100955.53;4973219;28;20126;-84
2021/08/26 04:52:05;;;;;;;12.65;4.28;;;;;;;14.63;91.50;100952.47;4980587;28;20507;-84
2021/08/26 04:54:31;;;;;;;11.82;3.83;;;;;;;14.61;91.11;100954.50;4971029;28;20038;-84
2021/08/26 04:56:56;;;;;;;12.18;3.90;;;;;;;14.58;91.25;100962.97;4980592;28;20492;-84
2021/08/26 04:59:21;;;;;;;13.50;4.50;;;;;;;14.54;91.51;100959.00;4995540;28;20054;-84
2021/08/26 05:01:47;;;;;;;14.38;3.30;;;;;;;14.54;91.69;100950.91;4979411;28;20053;-84
2021/08/26 05:04:12;;;;;;;12.68;3.88;;;;;;;14.61;92.33;100959.91;4980368;28;20050;-84
2021/08/26 05:06:37;;;;;;;11.45;3.63;;;;;;;14.57;92.44;100949.69;4963809;28;20514;-84
2021/08/26 05:09:03;;;;;;;13.05;3.40;;;;;;;14.52;93.00;100955.63;4965060;28;20038;-84
2021/08/26 05:11:28;;;;;;;11.55;3.90;;;;;;;14.55;93.14;100951.72;4984079;28;20038;-85
2021/08/26 05:13:54;;;;;;;9.68;3.42;;;;;;;14.52;93.36;100947.53;4979741;28;20053;-84
2021/08/26 05:16:20;;;;;;;17.90;4.40;;;;;;;14.50;93.50;100952.28;4971675;28;20042;-84
2021/08/26 05:18:45;;;;;;;12.68;4.07;;;;;;;14.51;93.24;100959.34;4979534;28;20499;-84
2021/08/26 05:21:11;;;;;;;13.50;3.97;;;;;;;14.49;93.77;100961.38;4980538;28;20180;-84
2021/08/26 05:23:36;;;;;;;14.55;4.30;;;;;;;14.47;93.69;100960.72;4980428;28;20124;-84
2021/08/26 05:26:02;;;;;;;15.50;3.78;;;;;;;14.47;94.31;100958.00;4982851;28;20046;-84
2021/08/26 05:28:28;;;;;;;14.40;4.03;;;;;;;14.48;93.92;100957.00;4964062;28;20085;-83
2021/08/26 05:30:53;;;;;;;15.57;3.60;;;;;;;14.49;94.28;100961.38;4978225;28;20053;-84
2021/08/26 05:33:19;;;;;;;12.90;3.28;;;;;;;14.51;94.84;100956.63;5011048;28;20046;-84
2021/08/26 05:35:44;;;;;;;11.50;4.05;;;;;;;14.51;94.46;100951.25;4975247;28;20038;-84
2021/08/26 05:38:09;;;;;;;11.45;3.63;;;;;;;14.45;93.65;100955.50;4981223;28;20112;-84
2021/08/26 05:40:35;;;;;;;8.80;3.70;;;;;;;14.50;94.22;100967.59;4980833;28;20042;-84
2021/08/26 05:43:00;;;;;;;15.50;4.22;;;;;;;14.47;94.82;100957.19;4980817;28;20085;-84
2021/08/26 05:45:27;;;;;;;13.60;3.70;;;;;;;14.47;94.83;100963.41;4976306;28;20042;-83
2021/08/26 05:47:55;;;;;;;12.27;3.72;;;;;;;14.48;94.73;100958.88;4987354;28;20152;-84
2021/08/26 05:50:24;;;;;;;13.63;3.53;;;;;;;14.47;94.86;100962.59;4979853;28;20117;-84
2021/08/26 05:52:50;;;;;;;12.02;3.50;;;;;;;14.49;94.68;100961.38;4988593;28;20129;-83
2021/08/26 05:55:17;;;;;;;12.35;3.15;;;;;;;14.46;94.66;100953.66;4978879;28;20047;-85
2021/08/26 05:57:44;;;;;;;15.63;3.22;;;;;;;14.45;95.38;100960.91;4976192;28;20061;-84
2021/08/26 06:00:11;;;;;;;13.20;3.15;;;;;;;14.48;95.87;100959.72;4985581;28;20126;-83
2021/08/26 06:02:42;;;;;;;12.40;3.40;;;;;;;14.50;96.27;100965.78;4982795;28;20046;-83
2021/08/26 06:05:08;;;;;;;10.60;2.95;;;;;;;14.51;96.69;100964.75;4978813;28;20550;-83
2021/08/26 06:07:34;;;;;;;10.55;2.90;;;;;;;14.44;96.52;100955.69;4976278;28;20048;-83
2021/08/26 06:09:59;;;;;;;12.60;3.33;;;;;;;14.38;96.92;100965.38;4982235;28;20034;-83
2021/08/26 06:12:24;;;;;;;9.90;3.22;;;;;;;14.39;97.03;100971.63;4978632;28;20050;-83
2021/08/26 06:14:50;;;;;;;10.80;2.85;;;;;;;14.38;97.46;100965.38;4961527;28;20042;-83
2021/08/26 06:17:15;;;;;;;12.60;3.35;;;;;;;14.41;98.25;100964.16;4981370;28;20471;-83
2021/08/26 06:19:40;;;;;;;13.98;3.30;;;;;;;14.40;97.87;100963.31;4948791;28;20504;-82
2021/08/26 06:22:06;;;;;;;10.82;3.35;;;;;;;14.41;98.40;100961.47;4980749;28;20521;-83
2021/08/26 06:24:31;;;;;;;14.15;3.78;;;;;;;14.43;98.54;100962.13;4961956;28;20479;-83
2021/08/26 06:27:01;;;;;;;11.02;2.65;;;;;;;14.42;97.96;100966.69;4974758;28;20046;-83
2021/08/26 06:29:26;;;;;;;11.32;3.45;;;;;;;14.39;97.59;100963.53;4976858;28;20042;-83
2021/08/26 06:31:52;;;;;;;13.43;3.30;;;;;;;14.38;98.67;100968.06;4978511;28;20050;-83
2021/08/26 06:34:17;;;;;;;10.13;2.90;;;;;;;14.43;98.33;100962.94;4976376;28;20487;-83
2021/08/26 06:36:43;;;;;;;17.40;3.10;;;;;;;14.41;98.77;100962.31;4980306;28;20428;-83
2021/08/26 06:39:08;;;;;;;10.73;3.10;;;;;;;14.47;98.43;100963.41;4979181;28;20058;-83
2021/08/26 06:41:33;;;;;;;12.65;3.13;;;;;;;14.46;98.07;100956.34;4979200;28;20076;-83
2021/08/26 06:43:59;;;;;;;13.55;3.15;;;;;;;14.46;99.06;100956.34;4980574;28;20116;-83
2021/08/26 06:46:24;;;;;;;14.15;2.88;;;;;;;14.49;98.41;100966.78;4979277;28;20120;-83
2021/08/26 06:48:51;;;;;;;12.13;2.67;;;;;;;14.51;97.51;100964.75;4978986;28;20057;-83
2021/08/26 06:51:16;;;;;;;10.98;2.67;;;;;;;14.48;98.58;100962.41;4995336;28;20039;-83
2021/08/26 06:53:42;;;;;;;11.68;3.17;;;;;;;14.55;97.59;100960.66;4977782;28;20042;-83
2021/08/26 06:56:07;;;;;;;10.60;2.63;;;;;;;14.58;97.38;100970.25;4982816;28;20153;-83
2021/08/26 06:58:32;;;;;;;10.38;2.97;;;;;;;14.55;97.27;100966.06;4983513;28;20154;-83
2021/08/26 07:00:58;;;;;;;11.80;2.92;;;;;;;14.53;97.32;100962.72;4972262;28;20503;-83
2021/08/26 07:03:23;;;;;;;13.75;3.00;;;;;;;14.51;98.97;100955.81;4985311;28;20049;-82
2021/08/26 07:05:48;;;;;;;15.88;3.80;;;;;;;14.61;99.01;100962.59;4978921;28;20054;-83
2021/08/26 07:08:14;;;;;;;10.68;3.45;;;;;;;14.64;98.81;100959.56;4976363;28;20229;-82
2021/08/26 07:10:39;;;;;;;11.00;3.33;;;;;;;14.61;99.31;100959.06;4983639;28;20046;-82
2021/08/26 07:13:05;;;;;;;12.50;3.38;;;;;;;14.66;98.85;100957.50;4966528;28;20136;-83
2021/08/26 07:15:32;;;;;;;12.10;3.00;;;;;;;14.70;98.46;100962.53;4978164;28;20042;-83
2021/08/26 07:17:57;;;;;;;11.70;3.28;;;;;;;14.74;98.44;100961.97;4985928;28;20046;-83
2021/08/26 07:20:23;;;;;;;10.93;3.33;;;;;;;14.84;97.66;100951.69;4981953;28;20039;-83
2021/08/26 07:22:49;;;;;;;11.70;3.53;;;;;;;14.83;96.90;100957.31;4980531;28;20395;-83
2021/08/26 07:25:14;;;;;;;11.80;3.65;;;;;;;14.89;97.17;100951.16;4959934;28;20046;-83
2021/08/26 07:27:40;;;;;;;12.70;3.63;;;;;;;14.94;97.54;100954.13;4965422;28;20042;-83
2021/08/26 07:30:06;;;;;;;13.18;3.10;;;;;;;15.00;97.04;100958.78;4983452;28;20050;-83
2021/08/26 07:32:32;;;;;;;10.07;2.80;;;;;;;15.01;96.80;100955.03;4980483;28;20034;-82
2021/08/26 07:34:58;;;;;;;11.85;2.95;;;;;;;15.11;95.85;100947.47;4982779;28;20367;-83
2021/08/26 07:37:23;;;;;;;13.27;3.83;;;;;;;15.19;95.72;100959.19;5012127;28;20048;-83
2021/08/26 07:39:50;;;;;;;12.48;3.40;;;;;;;15.29;94.46;100957.84;4963079;28;20039;-83
2021/08/26 07:42:15;;;;;;;14.32;2.85;;;;;;;15.29;94.22;100955.16;4963336;28;20042;-83
2021/08/26 07:44:41;;;;;;;11.90;3.13;;;;;;;15.34;92.65;100954.59;4961681;28;20415;-83
2021/08/26 07:47:06;;;;;;;11.38;3.17;;;;;;;15.33;92.45;100964.56;4960183;28;20065;-83
2021/08/26 07:49:32;;;;;;;10.38;3.13;;;;;;;15.33;93.00;100953.75;4961427;28;20129;-83
2021/08/26 07:51:57;;;;;;;10.57;2.97;;;;;;;15.35;93.11;100956.25;4963996;28;20130;-84
2021/08/26 07:54:22;;;;;;;11.25;3.25;;;;;;;15.38;92.89;100961.28;4962506;28;20090;-83
2021/08/26 07:56:48;;;;;;;10.02;3.03;;;;;;;15.36;92.61;100963.31;4955973;28;20054;-83
2021/08/26 07:59:13;;;;;;;10.60;2.83;;;;;;;15.39;93.19;100956.69;4992037;28;20050;-83
2021/08/26 08:01:39;;;;;;;12.23;2.63;;;;;;;15.43;92.21;100955.31;4981105;28;20480;-83
2021/08/26 08:04:04;;;;;;;11.13;3.03;;;;;;;15.44;91.90;100954.25;5013041;28;20046;-83
2021/08/26 08:06:30;;;;;;;11.20;2.67;;;;;;;15.45;91.78;100948.69;4980610;28;20051;-83
2021/08/26 08:08:55;;;;;;;8.35;2.30;;;;;;;15.50;92.14;100943.50;4963591;28;20367;-82
2021/08/26 08:11:20;;;;;;;7.75;2.72;;;;;;;15.56;91.57;100950.00;4982309;28;20042;-83
2021/08/26 08:13:46;;;;;;;11.70;3.38;;;;;;;15.66;91.89;100949.72;4982125;28;20053;-83
2021/08/26 08:16:12;;;;;;;10.38;3.20;;;;;;;15.78;92.08;100951.72;4966034;28;20526;-83
2021/08/26 08:18:37;;;;;;;11.98;3.45;;;;;;;15.84;90.66;100960.09;4981254;28;20561;-83
2021/08/26 08:21:03;;;;;;;11.95;3.17;;;;;;;15.87;90.70;100959.69;4980524;28;20054;-83
2021/08/26 08:23:30;;;;;;;15.18;4.20;;;;;;;15.95;90.09;100944.16;4981889;28;20122;-83
2021/08/26 08:25:56;;;;;;;10.23;2.70;;;;;;;16.10;90.62;100949.47;4991311;28;20524;-83
2021/08/26 08:28:21;;;;;;;11.32;3.20;;;;;;;16.11;89.32;100958.44;4980802;28;20046;-83
2021/08/26 08:30:47;;;;;;;13.60;3.80;;;;;;;16.16;89.94;100945.97;4982292;28;20400;-83
2021/08/26 08:33:13;;;;;;;12.27;3.25;;;;;;;16.32;89.98;100946.72;4981303;28;20038;-83
2021/08/26 08:35:39;;;;;;;7.28;3.20;;;;;;;16.39;88.91;100943.00;4963436;28;20342;-83
2021/08/26 08:38:05;;;;;;;13.38;3.10;;;;;;;16.42;89.07;100948.03;4983369;28;20411;-83
2021/08/26 08:40:30;;;;;;;11.68;3.55;;;;;;;16.44;88.67;100942.44;4981305;28;20042;-83
2021/08/26 08:42:57;;;;;;;13.45;3.83;;;;;;;16.53;89.19;100937.69;4981843;28;20042;-83
2021/08/26 08:45:22;;;;;;;12.75;3.22;;;;;;;16.60;88.68;100941.25;4982528;28;20038;-83
2021/08/26 08:47:49;;;;;;;13.13;4.07;;;;;;;16.65;88.76;100941.50;4981330;28;20100;-83
2021/08/26 08:50:15;;;;;;;15.88;4.20;;;;;;;16.66;88.34;100951.31;4979922;28;20042;-83
2021/08/26 08:52:41;;;;;;;10.70;3.88;;;;;;;16.68;88.64;100941.91;4978336;28;20160;-83
2021/08/26 08:55:09;;;;;;;14.05;4.35;;;;;;;16.69;88.62;100938.19;4990641;28;20042;-83
2021/08/26 08:57:36;;;;;;;13.93;3.83;;;;;;;16.76;87.87;100934.66;4993289;28;20072;-83
2021/08/26 09:00:14;;;;;;;13.55;4.13;;;;;;;16.80;88.87;100939.53;4987437;28;20338;-83
2021/08/26 09:02:40;;;;;;;14.32;4.22;;;;;;;16.97;88.75;100928.31;5009197;28;20046;-83
2021/08/26 09:05:07;;;;;;;15.68;4.28;;;;;;;17.07;87.34;100936.91;4996617;28;20097;-83
2021/08/26 09:07:34;;;;;;;14.50;4.38;;;;;;;17.08;87.56;100944.00;4980485;28;20050;-83
2021/08/26 09:10:00;;;;;;;13.40;4.53;;;;;;;17.21;86.70;100938.63;4977438;28;20050;-83
2021/08/26 09:12:44;;;;;;;17.70;4.72;;;;;;;17.22;85.48;100944.88;4981027;28;20053;-83
2021/08/26 09:15:29;;;;;;;13.45;4.55;;;;;;;17.18;85.72;100941.75;4992972;28;20046;-83
2021/08/26 09:18:21;;;;;;;13.13;4.00;;;;;;;17.07;84.71;100945.88;4972809;28;20050;-83
2021/08/26 09:20:57;;;;;;;15.38;4.70;;;;;;;17.07;84.53;100942.34;4968858;28;20070;-83
2021/08/26 09:23:27;;;;;;;14.52;4.28;;;;;;;17.01;85.20;100940.44;4981417;28;20049;-84
2021/08/26 09:25:54;;;;;;;14.27;4.57;;;;;;;17.13;85.78;100938.81;4961822;28;20082;-83
2021/08/26 09:28:29;;;;;;;14.00;4.82;;;;;;;17.13;85.39;100945.06;4990008;28;20552;-83
2021/08/26 09:31:16;;;;;;;13.90;4.38;;;;;;;17.18;84.72;100936.34;4980475;28;20100;-84
2021/08/26 09:34:00;;;;;;;12.38;4.03;;;;;;;17.26;85.03;100938.00;4979063;28;20049;-84
2021/08/26 09:36:31;;;;;;;14.75;4.05;;;;;;;17.24;84.30;100940.94;4964500;28;20213;-83
2021/08/26 09:39:13;;;;;;;16.10;4.40;;;;;;;17.22;83.88;100928.63;4979386;28;20495;-83
2021/08/26 09:41:43;;;;;;;16.17;4.65;;;;;;;17.32;83.76;100939.88;4981032;28;20541;-84
2021/08/26 09:44:24;;;;;;;12.57;4.30;;;;;;;17.52;83.75;100938.06;4996225;28;20573;-84
2021/08/26 09:46:51;;;;;;;14.95;4.05;;;;;;;17.90;84.70;100929.38;4979008;28;20400;-84
2021/08/26 09:49:20;;;;;;;19.58;3.92;;;;;;;18.06;80.05;100936.22;4983224;28;20042;-84
2021/08/26 09:51:45;;;;;;;;;;;;;;;18.02;80.67;100935.00;4958415;28;20451;-84
2021/08/26 09:54:51;;;;;;;12.73;4.28;;;;;;;17.86;81.17;100938.13;4981400;28;19925;-84
2021/08/26 09:57:28;;;;;;;12.45;3.53;;;;;;;17.84;81.49;100941.06;4937723;28;21189;-84
2021/08/26 09:59:55;;;;;;;16.88;4.18;;;;;;;17.92;81.75;100943.53;4937020;28;20222;-84
2021/08/26 10:02:21;;;;;;;14.07;3.63;;;;;;;17.96;81.69;100944.81;4956576;28;20049;-84
2021/08/26 10:04:48;;;;;;;14.85;4.65;;;;;;;17.99;80.93;100943.56;4979522;28;20146;-84
2021/08/26 10:07:14;;;;;;;14.48;4.70;;;;;;;17.99;80.95;100944.38;4979269;28;20513;-84
2021/08/26 10:09:41;;;;;;;13.35;4.53;;;;;;;18.07;80.85;100946.06;4982193;28;20038;-84
2021/08/26 10:12:11;;;;;;;14.30;3.70;;;;;;;18.00;79.60;100948.75;4990118;28;20045;-84
2021/08/26 10:14:37;;;;;;;14.00;4.60;;;;;;;17.94;79.19;100948.78;4981206;28;20488;-84
2021/08/26 10:17:03;;;;;;;11.68;3.83;;;;;;;18.01;80.68;100955.03;4975242;28;20141;-84
2021/08/26 10:19:29;;;;;;;13.82;4.15;;;;;;;18.16;79.43;100950.22;4979802;28;20704;-84
2021/08/26 10:21:54;;;;;;;13.85;3.67;;;;;;;18.27;79.70;100941.44;4977883;28;20260;-84
2021/08/26 10:24:21;;;;;;;19.55;4.88;;;;;;;18.36;79.95;100943.94;4978389;28;20042;-84
2021/08/26 10:26:53;;;;;;;10.85;3.50;;;;;;;18.34;79.48;100937.88;4977427;28;20488;-84
2021/08/26 10:29:23;;;;;;;12.43;3.90;;;;;;;18.32;80.32;100942.69;4977702;28;20065;-84
2021/08/26 10:31:54;;;;;;;12.52;4.18;;;;;;;18.29;79.73;100943.09;4984225;28;20480;-84
2021/08/26 10:34:23;;;;;;;16.80;4.53;;;;;;;18.32;79.97;100939.97;4983226;28;20042;-84
2021/08/26 10:36:54;;;;;;;11.68;3.50;;;;;;;18.36;79.55;100943.94;4982320;28;20043;-84
2021/08/26 10:39:40;;;;;;;12.25;4.38;;;;;;;18.30;79.60;100942.06;4996624;28;20140;-84
2021/08/26 10:42:17;;;;;;;14.27;3.72;;;;;;;18.42;79.37;100940.38;4975863;28;20047;-84
2021/08/26 10:45:21;;;;;;;13.68;3.83;;;;;;;18.57;79.12;100940.97;4990599;28;20045;-84
2021/08/26 10:47:49;;;;;;;16.75;4.40;;;;;;;18.55;77.99;100937.59;4980192;28;20056;-84
2021/08/26 10:50:23;;;;;;;11.03;3.53;;;;;;;18.72;80.12;100949.69;4989289;28;20047;-84
2021/08/26 10:53:04;;;;;;;13.82;3.80;;;;;;;18.78;78.29;100944.47;4976248;28;20301;-84
2021/08/26 10:55:31;;;;;;;12.70;4.22;;;;;;;18.61;78.41;100953.06;4997374;28;20046;-84
2021/08/26 10:58:16;;;;;;;14.23;4.55;;;;;;;18.56;79.38;100949.31;4978560;28;20086;-84
2021/08/26 11:00:43;;;;;;;16.35;4.35;;;;;;;18.47;79.55;100954.13;4978416;28;20492;-84
2021/08/26 11:03:09;;;;;;;15.75;4.43;;;;;;;18.41;79.17;100949.56;4996217;28;20077;-84
2021/08/26 11:05:39;;;;;;;15.07;4.97;;;;;;;18.47;79.95;100944.13;4977050;28;20129;-84
2021/08/26 11:08:31;;;;;;;26.85;5.50;;;;;;;18.55;80.20;100951.19;4979259;28;20440;-84
2021/08/26 11:11:17;;;;;;;14.52;4.47;;;;;;;18.59;80.85;100952.47;4963017;28;20507;-84
2021/08/26 11:13:43;;;;;;;14.10;4.28;;;;;;;18.81;79.30;100941.31;4982644;28;20137;-85
2021/08/26 11:16:23;;;;;;;15.80;4.75;;;;;;;18.86;78.67;100947.78;4983066;28;20459;-85
2021/08/26 11:18:53;;;;;;;11.77;3.83;;;;;;;18.98;76.03;100950.66;4979862;28;20042;-84
2021/08/26 11:21:43;;;;;;;11.57;4.03;;;;;;;19.06;76.70;100944.16;4984983;28;20074;-85
2021/08/26 11:24:12;;;;;;;10.13;4.00;;;;;;;19.10;76.06;100946.25;4980829;28;20050;-86
2021/08/26 11:26:52;;;;;;;13.20;4.22;;;;;;;19.19;75.89;100945.97;4980847;28;20136;-84
2021/08/26 11:29:20;;;;;;;14.43;4.30;;;;;;;19.19;74.80;100943.25;4999127;28;20042;-84